createdAt,value
2023-01-31T00:01:36.425Z,102114.06
2023-01-31T00:04:07.049Z,102114.06
2023-01-31T00:06:37.387Z,102116.78
2023-01-31T00:09:06.683Z,102108.16
2023-01-31T00:11:35.109Z,102116.84
2023-01-31T00:14:06.027Z,102113.41
2023-01-31T00:16:33.826Z,102110.84
2023-01-31T00:19:01.562Z,102112.75
2023-01-31T00:21:30.760Z,102109.34
2023-01-31T00:23:59.959Z,102112.03
2023-01-31T00:26:30.227Z,102108.72
2023-01-31T00:28:59.550Z,102122.72
2023-01-31T00:31:30.394Z,102110.66
2023-01-31T00:33:58.784Z,102102.81
2023-01-31T00:36:28.054Z,102107.25
2023-01-31T00:38:58.152Z,102109.13
2023-01-31T00:41:27.941Z,102111.03
2023-01-31T00:43:55.765Z,102106.66
2023-01-31T00:46:23.848Z,102104.09
2023-01-31T00:48:53.076Z,102098.88
2023-01-31T00:51:21.370Z,102096.38
2023-01-31T00:53:50.169Z,102086.78
2023-01-31T00:56:19.881Z,102106.94
2023-01-31T00:58:47.767Z,102111.44
2023-01-31T01:01:18.499Z,102109.66
2023-01-31T01:03:46.771Z,102109.72
2023-01-31T01:06:16.153Z,102112.41
2023-01-31T01:08:44.306Z,102110.84
2023-01-31T01:11:14.096Z,102099.59
2023-01-31T01:13:42.270Z,102092.66
2023-01-31T01:16:12.416Z,102084.09
2023-01-31T01:18:40.594Z,102085.91
2023-01-31T01:21:10.067Z,102084.19
2023-01-31T01:23:39.503Z,102090.47
2023-01-31T01:26:07.290Z,102092.28
2023-01-31T01:28:36.405Z,102091.44
2023-01-31T01:31:07.793Z,102087.91
2023-01-31T01:33:36.338Z,102097.53
2023-01-31T01:36:05.624Z,102102.81
2023-01-31T01:38:35.231Z,102111.63
2023-01-31T01:41:05.716Z,102103.91
2023-01-31T01:43:44.066Z,102114.38
2023-01-31T01:46:15.812Z,102125.78
2023-01-31T01:48:46.444Z,102126.72
2023-01-31T01:51:15.532Z,102116.44
2023-01-31T01:53:44.591Z,102129.56
2023-01-31T01:56:17.618Z,102127.13
2023-01-31T01:58:48.080Z,102129.75
2023-01-31T02:01:16.818Z,102141.06
2023-01-31T02:03:45.566Z,102146.28
2023-01-31T02:06:13.341Z,102143.66
2023-01-31T02:08:43.284Z,102138.41
2023-01-31T02:11:19.032Z,102128.00
2023-01-31T02:13:47.835Z,102145.34
2023-01-31T02:16:16.104Z,102128.81
2023-01-31T02:18:44.614Z,102123.66
2023-01-31T02:21:27.318Z,102116.53
2023-01-31T02:24:48.826Z,102113.06
2023-01-31T02:27:44.431Z,102121.06
2023-01-31T02:30:35.473Z,102114.28
2023-01-31T02:33:15.221Z,102105.81
2023-01-31T02:35:54.467Z,102109.22
2023-01-31T02:38:31.911Z,102108.66
2023-01-31T02:41:06.130Z,102113.88
2023-01-31T02:43:58.357Z,102105.22
2023-01-31T02:46:31.515Z,102107.03
2023-01-31T02:49:04.442Z,102099.28
2023-01-31T02:51:34.789Z,102093.16
2023-01-31T02:54:07.502Z,102087.16
2023-01-31T02:56:36.864Z,102091.53
2023-01-31T02:59:06.710Z,102077.66
2023-01-31T03:01:37.119Z,102067.97
2023-01-31T03:04:08.904Z,102071.25
2023-01-31T03:06:54.589Z,102060.72
2023-01-31T03:09:29.952Z,102068.44
2023-01-31T03:12:02.426Z,102052.88
2023-01-31T03:14:33.245Z,102071.78
2023-01-31T03:17:21.381Z,102055.28
2023-01-31T03:19:53.427Z,102069.78
2023-01-31T03:22:27.140Z,102066.38
2023-01-31T03:24:55.371Z,102066.94
2023-01-31T03:27:23.260Z,102064.38
2023-01-31T03:29:51.405Z,102072.16
2023-01-31T03:32:23.306Z,102068.69
2023-01-31T03:34:53.192Z,102060.84
2023-01-31T03:37:24.425Z,102060.94
2023-01-31T03:39:56.593Z,102054.78
2023-01-31T03:42:26.738Z,102052.28
2023-01-31T03:44:57.993Z,102054.00
2023-01-31T03:47:27.440Z,102045.22
2023-01-31T03:49:59.548Z,102044.16
2023-01-31T03:52:30.559Z,102050.19
2023-01-31T03:55:01.596Z,102038.00
2023-01-31T03:57:32.540Z,102042.13
2023-01-31T04:00:01.118Z,102033.44
2023-01-31T04:02:33.360Z,102044.56
2023-01-31T04:05:07.521Z,102035.75
2023-01-31T04:07:35.941Z,102041.84
2023-01-31T04:10:04.744Z,102026.97
2023-01-31T04:12:38.926Z,102020.75
2023-01-31T04:15:07.814Z,102025.84
2023-01-31T04:17:35.540Z,102016.97
2023-01-31T04:20:05.893Z,102019.50
2023-01-31T04:22:33.699Z,102007.22
2023-01-31T04:25:01.471Z,102006.31
2023-01-31T04:27:29.257Z,102007.94
2023-01-31T04:29:56.934Z,101992.28
2023-01-31T04:32:24.600Z,101987.88
2023-01-31T04:34:52.413Z,101984.41
2023-01-31T04:37:21.548Z,101978.31
2023-01-31T04:39:49.507Z,101986.78
2023-01-31T04:42:17.196Z,101983.22
2023-01-31T04:44:44.919Z,101983.16
2023-01-31T04:47:12.637Z,101980.53
2023-01-31T04:49:40.717Z,101971.78
2023-01-31T04:52:08.430Z,101964.84
2023-01-31T04:54:37.864Z,101963.06
2023-01-31T04:57:05.892Z,101960.47
2023-01-31T04:59:33.881Z,101947.44
2023-01-31T05:02:01.602Z,101945.53
2023-01-31T05:04:29.401Z,101960.25
2023-01-31T05:06:57.083Z,101942.84
2023-01-31T05:09:24.954Z,101936.75
2023-01-31T05:11:54.120Z,101934.13
2023-01-31T05:14:22.022Z,101926.31
2023-01-31T05:16:49.687Z,101921.16
2023-01-31T05:19:17.795Z,101922.78
2023-01-31T05:21:59.046Z,101903.75
2023-01-31T05:24:28.180Z,101903.63
2023-01-31T05:26:58.912Z,101906.22
2023-01-31T05:29:27.570Z,101908.81
2023-01-31T05:31:56.611Z,101908.75
2023-01-31T05:34:25.530Z,101905.22
2023-01-31T05:36:53.392Z,101913.09
2023-01-31T05:39:21.147Z,101917.28
2023-01-31T05:41:49.019Z,101920.72
2023-01-31T05:44:18.131Z,101917.19
2023-01-31T05:46:46.432Z,101910.25
2023-01-31T05:49:14.228Z,101905.94
2023-01-31T05:51:42.729Z,101910.34
2023-01-31T05:54:12.153Z,101909.41
2023-01-31T05:56:40.167Z,101916.25
2023-01-31T05:59:07.945Z,101915.41
2023-01-31T06:01:37.085Z,101917.06
2023-01-31T06:04:04.810Z,101908.41
2023-01-31T06:06:32.482Z,101902.97
2023-01-31T06:09:00.278Z,101907.34
2023-01-31T06:11:28.017Z,101900.34
2023-01-31T06:13:58.066Z,101906.38
2023-01-31T06:16:26.320Z,101908.06
2023-01-31T06:18:57.073Z,101915.81
2023-01-31T06:21:24.984Z,101914.91
2023-01-31T06:23:52.846Z,101916.59
2023-01-31T06:26:20.596Z,101911.25
2023-01-31T06:28:48.230Z,101917.34
2023-01-31T06:31:16.044Z,101914.69
2023-01-31T06:33:47.311Z,101901.53
2023-01-31T06:36:19.527Z,101898.97
2023-01-31T06:38:50.588Z,101891.06
2023-01-31T06:41:18.392Z,101884.84
2023-01-31T06:43:46.042Z,101880.38
2023-01-31T06:46:13.796Z,101881.31
2023-01-31T06:48:41.914Z,101886.44
2023-01-31T06:51:09.562Z,101886.31
2023-01-31T06:53:38.717Z,101869.88
2023-01-31T06:56:07.402Z,101870.72
2023-01-31T06:58:35.281Z,101881.22
2023-01-31T07:01:06.207Z,101871.44
2023-01-31T07:03:33.886Z,101867.97
2023-01-31T07:06:01.636Z,101874.13
2023-01-31T07:08:30.251Z,101867.97
2023-01-31T07:11:01.642Z,101864.44
2023-01-31T07:13:30.173Z,101870.59
2023-01-31T07:15:57.981Z,101855.75
2023-01-31T07:18:25.769Z,101860.97
2023-01-31T07:20:53.509Z,101861.72
2023-01-31T07:23:21.255Z,101849.53
2023-01-31T07:25:48.998Z,101835.72
2023-01-31T07:28:18.060Z,101836.63
2023-01-31T07:30:46.271Z,101835.78
2023-01-31T07:33:14.090Z,101831.38
2023-01-31T07:35:43.054Z,101835.66
2023-01-31T07:38:11.514Z,101834.72
2023-01-31T07:40:40.077Z,101836.44
2023-01-31T07:43:07.829Z,101826.88
2023-01-31T07:45:37.253Z,101825.06
2023-01-31T07:48:06.521Z,101814.59
2023-01-31T07:50:34.246Z,101821.63
2023-01-31T07:53:01.915Z,101818.91
2023-01-31T07:55:29.847Z,101822.44
2023-01-31T07:57:57.567Z,101815.44
2023-01-31T08:00:43.022Z,101812.75
2023-01-31T08:03:33.977Z,101805.84
2023-01-31T08:06:03.089Z,101804.13
2023-01-31T08:08:30.837Z,101799.78
2023-01-31T08:10:58.695Z,101790.97
2023-01-31T08:13:27.170Z,101785.78
2023-01-31T08:15:55.298Z,101776.94
2023-01-31T08:18:24.452Z,101783.03
2023-01-31T08:20:52.165Z,101788.41
2023-01-31T08:23:19.899Z,101776.94
2023-01-31T08:25:47.574Z,101786.44
2023-01-31T08:28:15.246Z,101764.63
2023-01-31T08:30:46.499Z,101766.25
2023-01-31T08:33:17.964Z,101770.66
2023-01-31T08:35:47.157Z,101762.66
2023-01-31T08:38:16.790Z,101763.44
2023-01-31T08:40:44.931Z,101757.28
2023-01-31T08:43:12.629Z,101758.94
2023-01-31T08:45:40.367Z,101773.84
2023-01-31T08:48:08.102Z,101765.88
2023-01-31T08:50:35.922Z,101762.34
2023-01-31T08:53:06.272Z,101769.16
2023-01-31T08:55:36.127Z,101743.94
2023-01-31T08:58:04.168Z,101749.84
2023-01-31T09:00:32.445Z,101748.00
2023-01-31T09:03:01.468Z,101744.47
2023-01-31T09:05:30.454Z,101746.13
2023-01-31T09:07:58.245Z,101745.13
2023-01-31T09:10:27.309Z,101739.09
2023-01-31T09:12:54.977Z,101732.88
2023-01-31T09:15:22.969Z,101738.03
2023-01-31T09:17:50.903Z,101732.69
2023-01-31T09:20:19.033Z,101723.91
2023-01-31T09:22:46.756Z,101718.78
2023-01-31T09:25:14.465Z,101719.44
2023-01-31T09:27:43.525Z,101715.81
2023-01-31T09:30:12.350Z,101714.06
2023-01-31T09:32:41.367Z,101711.44
2023-01-31T09:35:09.735Z,101719.19
2023-01-31T09:37:37.767Z,101729.53
2023-01-31T09:40:06.341Z,101739.09
2023-01-31T09:42:37.252Z,101729.53
2023-01-31T09:45:09.310Z,101739.81
2023-01-31T09:47:40.098Z,101728.47
2023-01-31T09:50:22.495Z,101739.81
2023-01-31T09:52:50.453Z,101733.66
2023-01-31T09:55:20.209Z,101726.63
2023-01-31T09:57:52.881Z,101728.34
2023-01-31T10:00:26.059Z,101730.97
2023-01-31T10:03:17.966Z,101732.59
2023-01-31T10:05:51.139Z,101726.50
2023-01-31T10:08:23.533Z,101714.31
2023-01-31T10:10:53.154Z,101702.84
2023-01-31T10:13:24.731Z,101703.72
2023-01-31T10:15:56.744Z,101698.59
2023-01-31T10:18:27.972Z,101686.28
2023-01-31T10:20:59.817Z,101693.16
2023-01-31T10:23:31.500Z,101700.16
2023-01-31T10:26:01.509Z,101695.69
2023-01-31T10:28:35.288Z,101681.66
2023-01-31T10:31:08.586Z,101686.06
2023-01-31T10:33:41.107Z,101686.13
2023-01-31T10:36:14.049Z,101698.06
2023-01-31T10:38:49.494Z,101711.00
2023-01-31T10:41:21.367Z,101693.44
2023-01-31T10:43:55.205Z,101676.06
2023-01-31T10:46:24.364Z,101687.28
2023-01-31T10:48:52.099Z,101674.97
2023-01-31T10:51:30.604Z,101673.38
2023-01-31T10:54:17.930Z,101667.88
2023-01-31T10:56:47.660Z,101669.56
2023-01-31T10:59:20.659Z,101672.97
2023-01-31T11:01:49.862Z,101672.09
2023-01-31T11:04:26.333Z,101659.06
2023-01-31T11:06:54.555Z,101663.28
2023-01-31T11:09:23.550Z,101661.63
2023-01-31T11:11:56.536Z,101658.88
2023-01-31T11:14:24.376Z,101662.19
2023-01-31T11:16:58.855Z,101664.78
2023-01-31T11:19:31.479Z,101656.94
2023-01-31T11:21:59.168Z,101665.47
2023-01-31T11:24:30.992Z,101678.41
2023-01-31T11:27:01.536Z,101674.81
2023-01-31T11:29:31.562Z,101654.81
2023-01-31T11:32:01.645Z,101658.09
2023-01-31T11:34:31.443Z,101656.22
2023-01-31T11:37:05.874Z,101656.22
2023-01-31T11:39:35.140Z,101652.75
2023-01-31T11:42:07.707Z,101655.47
2023-01-31T11:44:35.546Z,101626.63
2023-01-31T11:47:07.963Z,101629.22
2023-01-31T11:49:37.008Z,101629.06
2023-01-31T11:52:13.820Z,101616.88
2023-01-31T11:54:45.369Z,101615.28
2023-01-31T11:57:17.782Z,101617.69
2023-01-31T11:59:45.544Z,101622.09
2023-01-31T12:02:28.666Z,101617.59
2023-01-31T12:04:57.198Z,101606.19
2023-01-31T12:07:26.313Z,101604.22
2023-01-31T12:09:54.077Z,101593.84
2023-01-31T12:12:29.943Z,101606.03
2023-01-31T12:15:01.335Z,101599.81
2023-01-31T12:17:32.760Z,101598.72
2023-01-31T12:20:27.059Z,101598.13
2023-01-31T12:23:04.232Z,101601.50
2023-01-31T12:25:44.197Z,101617.25
2023-01-31T12:28:18.033Z,101606.75
2023-01-31T12:30:58.613Z,101614.47
2023-01-31T12:33:39.812Z,101607.44
2023-01-31T12:36:17.147Z,101596.00
2023-01-31T12:38:54.991Z,101597.50
2023-01-31T12:41:30.198Z,101593.81
2023-01-31T12:44:18.973Z,101597.22
2023-01-31T12:47:09.999Z,101584.94
2023-01-31T12:50:20.436Z,101597.03
2023-01-31T12:53:01.059Z,101584.84
2023-01-31T12:55:33.056Z,101591.03
2023-01-31T12:58:21.374Z,101584.72
2023-01-31T13:00:56.332Z,101584.56
2023-01-31T13:03:33.515Z,101573.88
2023-01-31T13:06:03.610Z,101568.44
2023-01-31T13:08:34.472Z,101571.72
2023-01-31T13:11:05.185Z,101568.88
2023-01-31T13:13:37.103Z,101571.50
2023-01-31T13:16:13.397Z,101576.47
2023-01-31T13:18:41.655Z,101571.03
2023-01-31T13:21:11.392Z,101575.22
2023-01-31T13:23:43.245Z,101567.19
2023-01-31T13:26:13.249Z,101566.19
2023-01-31T13:28:45.903Z,101566.94
2023-01-31T13:31:20.544Z,101568.56
2023-01-31T13:33:53.704Z,101542.38
2023-01-31T13:36:26.337Z,101565.31
2023-01-31T13:38:55.729Z,101569.53
2023-01-31T13:41:27.868Z,101564.59
2023-01-31T13:43:56.823Z,101565.13
2023-01-31T13:46:28.595Z,101566.84
2023-01-31T13:48:59.607Z,101570.16
2023-01-31T13:51:32.074Z,101569.91
2023-01-31T13:54:05.434Z,101560.94
2023-01-31T13:56:34.820Z,101569.59
2023-01-31T13:59:03.128Z,101567.66
2023-01-31T14:01:33.936Z,101553.34
2023-01-31T14:04:21.778Z,101564.53
2023-01-31T14:07:13.943Z,101566.25
2023-01-31T14:09:46.699Z,101564.38
2023-01-31T14:12:35.416Z,101561.59
2023-01-31T14:15:04.231Z,101558.78
2023-01-31T14:18:01.130Z,101551.56
2023-01-31T14:20:30.855Z,101553.34
2023-01-31T14:23:32.421Z,101550.59
2023-01-31T14:26:01.586Z,101538.94
2023-01-31T14:28:30.004Z,101544.06
2023-01-31T14:30:57.891Z,101563.53
2023-01-31T14:33:29.608Z,101570.50
2023-01-31T14:36:34.939Z,101597.47
2023-01-31T14:39:24.604Z,101603.59
2023-01-31T14:42:04.897Z,101591.28
2023-01-31T14:44:42.325Z,101581.72
2023-01-31T14:47:25.819Z,101597.31
2023-01-31T14:50:36.055Z,101599.00
2023-01-31T14:53:31.463Z,101603.41
2023-01-31T14:56:08.864Z,101610.34
2023-01-31T14:58:37.394Z,101604.06
2023-01-31T15:01:07.024Z,101597.00
2023-01-31T15:03:37.198Z,101601.41
2023-01-31T15:06:11.523Z,101606.50
2023-01-31T15:08:42.219Z,101602.94
2023-01-31T15:11:41.395Z,101601.94
2023-01-31T15:14:34.632Z,101600.06
2023-01-31T15:17:06.101Z,101605.25
2023-01-31T15:19:37.372Z,101621.78
2023-01-31T15:22:09.065Z,101627.81
2023-01-31T15:24:37.983Z,101637.31
2023-01-31T15:27:12.497Z,101626.72
2023-01-31T15:29:51.131Z,101630.44
2023-01-31T15:32:21.454Z,101642.41
2023-01-31T15:34:55.339Z,101646.66
2023-01-31T15:37:26.195Z,101636.06
2023-01-31T15:39:56.922Z,101635.97
2023-01-31T15:42:26.584Z,101643.84
2023-01-31T15:45:30.056Z,101640.28
2023-01-31T15:47:59.783Z,101631.63
2023-01-31T15:50:28.751Z,101634.03
2023-01-31T15:52:58.541Z,101636.56
2023-01-31T15:57:21.860Z,101637.66
2023-01-31T15:59:49.673Z,101634.69
2023-01-31T16:02:27.904Z,101639.88
2023-01-31T16:04:55.961Z,101638.09
2023-01-31T16:07:28.409Z,101638.09
2023-01-31T16:09:57.416Z,101642.50
2023-01-31T16:12:26.869Z,101652.03
2023-01-31T16:14:59.289Z,101656.44
2023-01-31T16:17:28.052Z,101661.59
2023-01-31T16:19:55.983Z,101655.59
2023-01-31T16:22:27.720Z,101660.84
2023-01-31T16:24:57.090Z,101647.84
2023-01-31T16:27:26.655Z,101653.88
2023-01-31T16:29:58.657Z,101666.25
2023-01-31T16:32:28.986Z,101671.69
2023-01-31T16:34:58.743Z,101681.53
2023-01-31T16:37:34.864Z,101674.47
2023-01-31T16:40:06.796Z,101678.81
2023-01-31T16:42:38.686Z,101678.81
2023-01-31T16:45:28.035Z,101670.06
2023-01-31T16:47:56.432Z,101665.75
2023-01-31T16:50:43.250Z,101676.44
2023-01-31T16:53:20.332Z,101681.78
2023-01-31T16:56:18.533Z,101684.41
2023-01-31T16:58:53.244Z,101692.31
2023-01-31T17:01:23.996Z,101701.06
2023-01-31T17:04:16.755Z,101705.28
2023-01-31T17:06:48.872Z,101700.13
2023-01-31T17:09:19.094Z,101699.25
2023-01-31T17:11:47.023Z,101706.41
2023-01-31T17:14:16.231Z,101712.56
2023-01-31T17:16:43.945Z,101710.88
2023-01-31T17:19:13.564Z,101705.59
2023-01-31T17:21:42.424Z,101699.50
2023-01-31T17:24:15.074Z,101720.81
2023-01-31T17:26:43.268Z,101716.44
2023-01-31T17:29:11.078Z,101720.84
2023-01-31T17:31:41.937Z,101717.47
2023-01-31T17:34:13.487Z,101711.34
2023-01-31T17:36:41.207Z,101710.59
2023-01-31T17:39:08.919Z,101712.47
2023-01-31T17:41:36.605Z,101708.09
2023-01-31T17:44:06.461Z,101702.09
2023-01-31T17:46:35.944Z,101704.09
2023-01-31T17:50:58.785Z,101713.81
2023-01-31T17:53:26.848Z,101703.47
2023-01-31T17:55:56.443Z,101709.72
2023-01-31T17:58:24.663Z,101710.75
2023-01-31T18:00:52.484Z,101717.88
2023-01-31T18:03:20.983Z,101704.88
2023-01-31T18:05:48.831Z,101704.94
2023-01-31T18:08:18.024Z,101705.88
2023-01-31T18:10:45.951Z,101709.53
2023-01-31T18:13:13.821Z,101700.88
2023-01-31T18:15:41.671Z,101709.66
2023-01-31T18:18:09.807Z,101707.97
2023-01-31T18:20:38.873Z,101703.66
2023-01-31T18:23:06.921Z,101708.06
2023-01-31T18:25:36.008Z,101709.00
2023-01-31T18:28:03.819Z,101715.25
2023-01-31T18:30:31.559Z,101707.69
2023-01-31T18:32:59.303Z,101711.16
2023-01-31T18:35:27.043Z,101700.94
2023-01-31T18:37:55.365Z,101715.88
2023-01-31T18:40:23.058Z,101702.81
2023-01-31T18:42:52.106Z,101704.59
2023-01-31T18:45:20.208Z,101712.63
2023-01-31T18:47:48.099Z,101705.75
2023-01-31T18:50:16.273Z,101681.44
2023-01-31T18:52:44.043Z,101689.13
2023-01-31T18:55:12.151Z,101700.56
2023-01-31T18:57:39.904Z,101697.19
2023-01-31T19:00:10.817Z,101698.97
2023-01-31T19:02:38.495Z,101697.22
2023-01-31T19:05:08.800Z,101713.94
2023-01-31T19:07:36.514Z,101720.34
2023-01-31T19:10:04.284Z,101716.63
2023-01-31T19:12:32.555Z,101722.91
2023-01-31T19:15:00.317Z,101717.72
2023-01-31T19:17:29.382Z,101715.09
2023-01-31T19:19:57.045Z,101719.44
2023-01-31T19:22:28.389Z,101722.09
2023-01-31T19:24:56.608Z,101717.88
2023-01-31T19:27:24.445Z,101725.91
2023-01-31T19:29:52.213Z,101717.22
2023-01-31T19:32:19.864Z,101726.00
2023-01-31T19:34:48.980Z,101721.72
2023-01-31T19:37:16.817Z,101720.94
2023-01-31T19:39:44.562Z,101718.41
2023-01-31T19:42:12.326Z,101721.81
2023-01-31T19:44:40.019Z,101714.84
2023-01-31T19:47:07.716Z,101716.75
2023-01-31T19:49:35.507Z,101716.91
2023-01-31T19:52:04.856Z,101716.06
2023-01-31T19:54:32.583Z,101709.22
2023-01-31T19:57:00.270Z,101711.13
2023-01-31T19:59:27.988Z,101705.09
2023-01-31T20:01:55.767Z,101707.81
2023-01-31T20:04:23.763Z,101711.34
2023-01-31T20:06:51.499Z,101702.00
2023-01-31T20:09:20.957Z,101703.78
2023-01-31T20:11:51.047Z,101709.09
2023-01-31T20:14:18.915Z,101715.19
2023-01-31T20:16:46.630Z,101709.09
2023-01-31T20:19:14.329Z,101718.72
2023-01-31T20:21:42.029Z,101730.16
2023-01-31T20:24:09.982Z,101722.34
2023-01-31T20:26:39.123Z,101722.44
2023-01-31T20:29:07.021Z,101718.09
2023-01-31T20:31:34.836Z,101726.28
2023-01-31T20:34:02.715Z,101723.66
2023-01-31T20:36:30.593Z,101708.91
2023-01-31T20:38:58.419Z,101708.19
2023-01-31T20:41:26.171Z,101712.50
2023-01-31T20:43:55.291Z,101712.50
2023-01-31T20:46:23.031Z,101707.25
2023-01-31T20:48:50.821Z,101703.88
2023-01-31T20:51:18.477Z,101698.69
2023-01-31T20:53:46.123Z,101715.22
2023-01-31T20:56:13.872Z,101712.66
2023-01-31T20:58:43.087Z,101710.97
2023-01-31T21:01:14.211Z,101714.50
2023-01-31T21:03:42.087Z,101714.50
2023-01-31T21:06:10.124Z,101713.66
2023-01-31T21:08:38.166Z,101710.47
2023-01-31T21:11:07.793Z,101719.31
2023-01-31T21:13:35.864Z,101731.53
2023-01-31T21:16:05.740Z,101734.28
2023-01-31T21:18:36.318Z,101735.91
2023-01-31T21:21:07.289Z,101730.81
2023-01-31T21:23:35.951Z,101732.66
2023-01-31T21:26:03.706Z,101730.97
2023-01-31T21:28:32.942Z,101725.84
2023-01-31T21:31:01.136Z,101725.06
2023-01-31T21:33:29.298Z,101732.16
2023-01-31T21:36:00.882Z,101722.72
2023-01-31T21:38:29.518Z,101724.59
2023-01-31T21:41:15.761Z,101703.88
2023-01-31T21:43:43.625Z,101716.63
2023-01-31T21:46:11.879Z,101720.19
2023-01-31T21:48:40.111Z,101712.47
2023-01-31T21:51:10.845Z,101716.88
2023-01-31T21:53:39.034Z,101704.72
2023-01-31T21:56:08.879Z,101709.19
2023-01-31T21:58:37.627Z,101704.03
2023-01-31T22:01:06.184Z,101704.09
2023-01-31T22:03:34.035Z,101700.75
2023-01-31T22:06:02.663Z,101699.72
2023-01-31T22:08:31.772Z,101700.59
2023-01-31T22:11:01.236Z,101695.66
2023-01-31T22:13:29.117Z,101679.94
2023-01-31T22:16:00.319Z,101688.72
2023-01-31T22:18:29.375Z,101686.13
2023-01-31T22:21:04.805Z,101681.06
2023-01-31T22:23:34.655Z,101679.97
2023-01-31T22:26:06.391Z,101675.66
2023-01-31T22:28:34.871Z,101682.66
2023-01-31T22:31:03.262Z,101680.84
2023-01-31T22:33:31.431Z,101680.91
2023-01-31T22:35:59.264Z,101685.22
2023-01-31T22:38:27.125Z,101676.66
2023-01-31T22:40:59.251Z,101676.66
2023-01-31T22:43:27.059Z,101675.88
2023-01-31T22:45:56.462Z,101654.91
2023-01-31T22:48:25.147Z,101660.78
2023-01-31T22:50:56.743Z,101670.41
2023-01-31T22:53:24.845Z,101664.31
2023-01-31T22:55:52.742Z,101670.38
2023-01-31T22:58:22.535Z,101666.81
2023-01-31T23:00:50.530Z,101662.50
2023-01-31T23:03:18.510Z,101650.25
2023-01-31T23:05:46.246Z,101658.03
2023-01-31T23:08:15.272Z,101662.53
2023-01-31T23:10:43.834Z,101660.78
2023-01-31T23:13:12.261Z,101664.31
2023-01-31T23:15:41.422Z,101662.63
2023-01-31T23:18:09.275Z,101648.75
2023-01-31T23:20:37.180Z,101659.34
2023-01-31T23:23:04.839Z,101657.66
2023-01-31T23:25:32.539Z,101652.56
2023-01-31T23:28:01.074Z,101661.34
2023-01-31T23:30:28.816Z,101655.25
2023-01-31T23:32:57.983Z,101652.56
2023-01-31T23:35:25.664Z,101642.06
2023-01-31T23:37:53.412Z,101637.59
2023-01-31T23:40:22.034Z,101641.91
2023-01-31T23:42:49.957Z,101641.91
2023-01-31T23:45:17.842Z,101635.72
2023-01-31T23:47:45.826Z,101635.91
2023-01-31T23:50:14.982Z,101635.91
2023-01-31T23:52:42.765Z,101631.44
2023-01-31T23:55:11.436Z,101620.09
2023-01-31T23:57:39.143Z,101634.84
